createdAt,value
2019-01-16T00:00:33.482Z,19.70
2019-01-16T00:03:25.912Z,19.70
2019-01-16T00:09:18.970Z,19.60
2019-01-16T00:12:08.120Z,19.60
2019-01-16T00:14:44.659Z,19.60
2019-01-16T00:17:21.648Z,19.60
2019-01-16T00:20:03.192Z,19.60
2019-01-16T00:22:52.606Z,19.60
2019-01-16T00:28:40.869Z,19.60
2019-01-16T00:31:17.739Z,19.60
2019-01-16T00:34:05.270Z,19.60
2019-01-16T00:42:53.985Z,19.60
2019-01-16T00:45:55.294Z,19.60
2019-01-16T00:48:49.520Z,19.60
2019-01-16T00:51:33.061Z,19.60
2019-01-16T00:57:41.985Z,19.50
2019-01-16T01:00:32.039Z,19.50
2019-01-16T01:09:24.961Z,19.50
2019-01-16T01:15:11.213Z,19.50
2019-01-16T01:17:51.579Z,19.50
2019-01-16T01:20:33.170Z,19.50
2019-01-16T01:23:09.969Z,19.50
2019-01-16T01:25:55.606Z,19.50
2019-01-16T01:28:31.621Z,19.50
2019-01-16T01:34:30.061Z,19.40
2019-01-16T01:40:14.807Z,19.40
2019-01-16T01:45:48.257Z,19.40
2019-01-16T01:48:45.812Z,19.40
2019-01-16T01:51:28.392Z,19.40
2019-01-16T01:54:07.731Z,19.40
2019-01-16T01:57:02.097Z,19.40
2019-01-16T01:59:57.389Z,19.30
2019-01-16T02:05:44.778Z,19.30
2019-01-16T02:08:33.622Z,19.30
2019-01-16T02:11:18.194Z,19.30
2019-01-16T02:14:09.967Z,19.30
2019-01-16T02:17:17.717Z,19.30
2019-01-16T02:22:44.068Z,19.30
2019-01-16T02:31:27.015Z,19.20
2019-01-16T02:34:11.230Z,19.30
2019-01-16T02:36:55.188Z,19.50
2019-01-16T02:39:37.904Z,19.60
2019-01-16T02:45:26.065Z,19.80
2019-01-16T02:48:10.231Z,20.00
2019-01-16T02:51:01.417Z,20.20
2019-01-16T02:59:24.553Z,20.50
2019-01-16T03:02:05.142Z,20.60
2019-01-16T03:04:41.950Z,20.70
2019-01-16T03:10:28.690Z,20.70
2019-01-16T03:13:16.795Z,20.70
2019-01-16T03:16:00.957Z,20.70
2019-01-16T03:18:29.639Z,20.50
2019-01-16T03:21:03.459Z,20.40
2019-01-16T03:23:45.784Z,20.40
2019-01-16T03:26:22.399Z,20.40
2019-01-16T03:29:12.038Z,20.40
2019-01-16T03:31:45.619Z,20.40
2019-01-16T03:34:21.778Z,20.40
2019-01-16T03:36:55.534Z,20.40
2019-01-16T03:39:32.044Z,20.40
2019-01-16T03:42:21.948Z,20.40
2019-01-16T03:44:58.646Z,20.40
2019-01-16T03:47:38.307Z,20.40
2019-01-16T03:50:12.906Z,20.40
2019-01-16T03:52:55.303Z,20.40
2019-01-16T03:55:31.569Z,20.40
2019-01-16T03:58:05.813Z,20.30
2019-01-16T04:00:40.321Z,20.30
2019-01-16T04:03:14.015Z,20.30
2019-01-16T04:05:47.727Z,20.30
2019-01-16T04:08:21.472Z,20.30
2019-01-16T04:10:58.798Z,20.30
2019-01-16T04:13:41.602Z,20.20
2019-01-16T04:16:24.082Z,20.20
2019-01-16T04:18:57.750Z,20.20
2019-01-16T04:21:31.364Z,20.20
2019-01-16T04:24:07.973Z,20.20
2019-01-16T04:26:41.584Z,20.10
2019-01-16T04:29:15.171Z,20.10
2019-01-16T04:31:55.301Z,20.10
2019-01-16T04:34:44.732Z,20.10
2019-01-16T04:37:18.368Z,20.10
2019-01-16T04:39:52.201Z,20.10
2019-01-16T04:42:44.286Z,20.10
2019-01-16T04:45:26.835Z,20.10
2019-01-16T04:48:00.572Z,20.10
2019-01-16T04:50:43.419Z,20.00
2019-01-16T04:53:32.560Z,20.00
2019-01-16T04:56:09.258Z,20.00
2019-01-16T04:58:42.973Z,20.00
2019-01-16T05:01:19.217Z,20.00
2019-01-16T05:04:01.679Z,20.00
2019-01-16T05:06:51.674Z,20.00
2019-01-16T05:09:25.278Z,20.20
2019-01-16T05:12:08.296Z,20.30
2019-01-16T05:14:41.950Z,20.40
2019-01-16T05:17:15.733Z,20.50
2019-01-16T05:19:55.375Z,20.60
2019-01-16T05:22:32.141Z,20.70
2019-01-16T05:25:06.439Z,20.70
2019-01-16T05:27:56.003Z,20.80
2019-01-16T05:30:29.619Z,20.70
2019-01-16T05:33:12.258Z,20.70
2019-01-16T05:35:46.123Z,20.70
2019-01-16T05:38:19.812Z,20.70
2019-01-16T05:40:59.439Z,20.60
2019-01-16T05:43:36.025Z,20.60
2019-01-16T05:46:12.217Z,20.60
2019-01-16T05:49:01.455Z,20.60
2019-01-16T05:51:35.208Z,20.60
2019-01-16T05:54:08.887Z,20.60
2019-01-16T05:56:45.018Z,20.50
2019-01-16T05:59:34.826Z,20.50
2019-01-16T06:02:14.462Z,20.50
2019-01-16T06:04:54.362Z,20.50
2019-01-16T06:07:33.918Z,20.50
2019-01-16T06:10:12.836Z,20.50
2019-01-16T06:12:49.567Z,20.40
2019-01-16T06:15:39.272Z,20.40
2019-01-16T06:18:22.134Z,20.40
2019-01-16T06:21:04.803Z,20.40
2019-01-16T06:23:44.217Z,20.20
2019-01-16T06:26:26.766Z,20.00
2019-01-16T06:29:14.549Z,19.90
2019-01-16T06:31:48.250Z,20.20
2019-01-16T06:34:24.365Z,20.30
2019-01-16T06:37:14.072Z,20.30
2019-01-16T06:39:48.160Z,20.40
2019-01-16T06:42:21.758Z,20.50
2019-01-16T06:45:11.413Z,20.60
2019-01-16T06:47:53.531Z,20.70
2019-01-16T06:50:27.088Z,20.80
2019-01-16T06:53:09.684Z,20.90
2019-01-16T06:56:01.554Z,21.00
2019-01-16T06:58:40.914Z,21.10
2019-01-16T07:01:17.295Z,21.20
2019-01-16T07:04:09.031Z,21.30
2019-01-16T07:06:59.054Z,21.40
2019-01-16T07:09:47.353Z,21.50
2019-01-16T07:12:37.265Z,21.50
2019-01-16T07:15:29.111Z,21.50
2019-01-16T07:18:18.415Z,21.40
2019-01-16T07:20:52.087Z,21.40
2019-01-16T07:23:34.553Z,21.30
2019-01-16T07:26:20.261Z,21.30
2019-01-16T07:29:00.770Z,21.20
2019-01-16T07:31:37.131Z,21.20
2019-01-16T07:34:13.508Z,21.20
2019-01-16T07:37:02.309Z,21.20
2019-01-16T07:39:53.854Z,21.20
2019-01-16T07:42:30.614Z,21.20
2019-01-16T07:45:15.919Z,21.20
2019-01-16T07:48:07.658Z,21.10
2019-01-16T07:50:45.383Z,21.10
2019-01-16T07:53:33.915Z,21.00
2019-01-16T07:56:10.421Z,21.10
2019-01-16T07:59:02.262Z,21.10
2019-01-16T08:01:35.791Z,21.00
2019-01-16T08:04:25.656Z,21.00
2019-01-16T08:06:59.217Z,20.90
2019-01-16T08:09:51.039Z,20.90
2019-01-16T08:12:24.570Z,21.00
2019-01-16T08:15:14.517Z,20.90
2019-01-16T08:18:04.766Z,20.90
2019-01-16T08:20:54.421Z,20.90
2019-01-16T08:23:43.735Z,20.90
2019-01-16T08:26:17.370Z,20.90
2019-01-16T08:28:58.182Z,20.80
2019-01-16T08:31:37.582Z,20.80
2019-01-16T08:34:27.133Z,20.90
2019-01-16T08:37:06.777Z,20.80
2019-01-16T08:39:43.337Z,20.80
2019-01-16T08:42:26.191Z,20.80
2019-01-16T08:45:03.189Z,20.80
2019-01-16T08:47:52.912Z,20.80
2019-01-16T08:50:32.518Z,20.80
2019-01-16T08:53:07.712Z,20.70
2019-01-16T08:55:41.422Z,20.70
2019-01-16T08:58:15.258Z,20.70
2019-01-16T09:00:57.705Z,20.70
2019-01-16T09:03:31.361Z,20.70
2019-01-16T09:06:16.901Z,20.60
2019-01-16T09:09:06.850Z,20.60
2019-01-16T09:11:40.573Z,20.60
2019-01-16T09:14:14.437Z,20.60
2019-01-16T09:16:53.865Z,20.60
2019-01-16T09:19:27.734Z,20.60
2019-01-16T09:22:09.998Z,20.50
2019-01-16T09:24:43.658Z,20.50
2019-01-16T09:27:20.249Z,20.50
2019-01-16T09:29:53.904Z,20.50
2019-01-16T09:32:33.474Z,20.50
2019-01-16T09:35:19.754Z,20.50
2019-01-16T09:38:09.310Z,20.50
2019-01-16T09:40:42.857Z,20.50
2019-01-16T09:43:16.519Z,20.40
2019-01-16T09:45:59.334Z,20.40
2019-01-16T09:48:50.043Z,20.40
2019-01-16T09:51:26.754Z,20.40
2019-01-16T09:54:00.334Z,20.40
2019-01-16T09:56:48.804Z,20.40
2019-01-16T09:59:22.461Z,20.40
2019-01-16T10:02:02.036Z,20.40
2019-01-16T10:04:38.930Z,20.30
2019-01-16T10:07:12.452Z,20.30
2019-01-16T10:09:46.310Z,20.30
2019-01-16T10:12:22.657Z,20.30
2019-01-16T10:15:11.111Z,20.30
2019-01-16T10:18:00.493Z,20.30
2019-01-16T10:20:34.339Z,20.20
2019-01-16T10:23:10.749Z,20.20
2019-01-16T10:25:44.321Z,20.20
2019-01-16T10:28:17.866Z,20.20
2019-01-16T10:30:51.441Z,20.20
2019-01-16T10:33:34.610Z,20.20
2019-01-16T10:36:10.968Z,20.20
2019-01-16T10:38:53.387Z,20.20
2019-01-16T10:41:32.780Z,20.10
2019-01-16T10:44:21.229Z,20.10
2019-01-16T10:47:00.617Z,20.20
2019-01-16T10:49:37.325Z,20.30
2019-01-16T10:52:15.069Z,20.40
2019-01-16T10:54:51.258Z,20.40
2019-01-16T10:57:27.897Z,20.50
2019-01-16T11:00:01.447Z,20.50
2019-01-16T11:02:41.892Z,20.50
2019-01-16T11:05:18.626Z,20.50
2019-01-16T11:08:08.378Z,20.50
2019-01-16T11:10:41.983Z,20.40
2019-01-16T11:13:21.713Z,20.40
2019-01-16T11:16:11.219Z,20.40
2019-01-16T11:18:59.893Z,20.40
2019-01-16T11:21:39.405Z,20.40
2019-01-16T11:24:23.685Z,20.40
2019-01-16T11:27:06.605Z,20.40
2019-01-16T11:29:40.219Z,20.30
2019-01-16T11:32:16.596Z,20.30
2019-01-16T11:35:08.407Z,20.30
2019-01-16T11:37:48.037Z,20.30
2019-01-16T11:40:33.413Z,20.30
2019-01-16T11:43:06.953Z,20.20
2019-01-16T11:45:43.373Z,20.20
2019-01-16T11:48:31.853Z,20.20
2019-01-16T11:51:18.678Z,20.20
2019-01-16T11:54:05.310Z,20.20
2019-01-16T11:56:55.226Z,20.20
2019-01-16T11:59:34.589Z,20.20
2019-01-16T12:02:20.601Z,20.20
2019-01-16T12:05:02.979Z,20.10
2019-01-16T12:07:37.657Z,20.20
2019-01-16T12:10:13.670Z,20.20
2019-01-16T12:12:47.339Z,20.20
2019-01-16T12:15:26.565Z,20.10
2019-01-16T12:18:18.063Z,20.10
2019-01-16T12:20:57.401Z,20.10
2019-01-16T12:23:43.761Z,20.10
2019-01-16T12:26:17.299Z,20.10
2019-01-16T12:29:00.014Z,20.20
2019-01-16T12:31:39.117Z,20.30
2019-01-16T12:34:12.693Z,20.30
2019-01-16T12:37:02.565Z,20.40
2019-01-16T12:39:48.096Z,20.40
2019-01-16T12:42:36.602Z,20.40
2019-01-16T12:45:12.948Z,20.40
2019-01-16T12:48:02.676Z,20.40
2019-01-16T12:50:39.530Z,20.40
2019-01-16T12:53:16.384Z,20.40
2019-01-16T12:56:06.086Z,20.40
2019-01-16T12:58:42.501Z,20.40
2019-01-16T13:01:18.627Z,20.40
2019-01-16T13:03:58.390Z,20.40
2019-01-16T13:06:34.525Z,20.40
2019-01-16T13:09:10.093Z,20.30
2019-01-16T13:11:58.890Z,20.30
2019-01-16T13:14:48.150Z,20.30
2019-01-16T13:17:30.585Z,20.30
2019-01-16T13:20:06.893Z,20.30
2019-01-16T13:22:46.110Z,20.30
2019-01-16T13:25:30.831Z,20.30
2019-01-16T13:28:19.187Z,20.30
2019-01-16T13:30:55.814Z,20.20
2019-01-16T13:33:32.158Z,20.20
2019-01-16T13:36:05.692Z,20.30
2019-01-16T13:38:39.245Z,20.30
2019-01-16T13:41:18.794Z,20.40
2019-01-16T13:43:55.317Z,20.50
2019-01-16T13:46:37.907Z,20.50
2019-01-16T13:49:29.486Z,20.50
2019-01-16T13:52:04.028Z,20.50
2019-01-16T13:54:40.427Z,20.50
2019-01-16T13:57:16.741Z,20.50
2019-01-16T13:59:55.888Z,20.50
2019-01-16T14:02:32.775Z,20.50
2019-01-16T14:05:09.864Z,20.50
2019-01-16T14:07:49.372Z,20.50
2019-01-16T14:10:22.946Z,20.60
2019-01-16T14:13:00.669Z,20.70
2019-01-16T14:15:49.921Z,20.70
2019-01-16T14:18:26.238Z,20.80
2019-01-16T14:21:15.760Z,21.00
2019-01-16T14:24:05.639Z,21.00
2019-01-16T14:26:39.585Z,20.90
2019-01-16T14:29:25.115Z,20.90
2019-01-16T14:32:01.499Z,21.00
2019-01-16T14:34:35.351Z,20.90
2019-01-16T14:37:17.916Z,20.90
2019-01-16T14:40:03.566Z,20.90
2019-01-16T14:42:39.898Z,20.90
2019-01-16T14:45:13.525Z,21.10
2019-01-16T14:47:47.195Z,21.10
2019-01-16T14:50:32.345Z,21.20
2019-01-16T14:53:08.805Z,21.30
2019-01-16T14:55:59.337Z,21.20
2019-01-16T14:58:35.829Z,21.20
2019-01-16T15:01:15.257Z,21.20
2019-01-16T15:03:51.610Z,21.10
2019-01-16T15:06:27.868Z,21.10
2019-01-16T15:09:01.447Z,21.10
2019-01-16T15:11:48.568Z,21.10
2019-01-16T15:14:28.378Z,21.10
2019-01-16T15:17:11.159Z,21.10
2019-01-16T15:19:44.728Z,21.10
2019-01-16T15:22:23.879Z,21.10
2019-01-16T15:25:06.372Z,21.20
2019-01-16T15:27:49.351Z,21.30
2019-01-16T15:30:38.659Z,21.40
2019-01-16T15:33:15.280Z,21.50
2019-01-16T15:36:00.612Z,21.60
2019-01-16T15:38:50.880Z,21.80
2019-01-16T15:41:24.274Z,21.90
2019-01-16T15:43:58.027Z,22.10
2019-01-16T15:46:31.426Z,22.10
2019-01-16T15:49:04.772Z,22.20
2019-01-16T15:51:38.154Z,22.20
2019-01-16T15:54:23.852Z,22.20
2019-01-16T15:56:55.668Z,22.20
2019-01-16T15:59:29.015Z,22.20
2019-01-16T16:02:18.489Z,22.20
2019-01-16T16:04:57.620Z,22.00
2019-01-16T16:07:49.283Z,22.00
2019-01-16T16:10:29.220Z,22.00
2019-01-16T16:13:05.514Z,21.90
2019-01-16T16:15:55.240Z,21.90
2019-01-16T16:18:28.698Z,21.90
2019-01-16T16:21:17.993Z,21.90
2019-01-16T16:23:53.903Z,21.80
2019-01-16T16:26:43.286Z,21.80
2019-01-16T16:29:17.258Z,21.80
2019-01-16T16:31:53.517Z,21.80
2019-01-16T16:34:35.994Z,21.70
2019-01-16T16:37:25.015Z,21.60
2019-01-16T16:40:04.046Z,21.70
2019-01-16T16:42:40.350Z,21.60
2019-01-16T16:45:14.451Z,21.60
2019-01-16T16:47:47.854Z,21.60
2019-01-16T16:50:27.637Z,21.60
2019-01-16T16:53:10.464Z,21.60
2019-01-16T16:55:59.563Z,21.30
2019-01-16T16:58:35.582Z,21.00
2019-01-16T17:01:11.775Z,21.10
2019-01-16T17:03:45.147Z,21.20
2019-01-16T17:06:21.925Z,21.20
2019-01-16T17:09:01.079Z,21.30
2019-01-16T17:11:35.782Z,21.30
2019-01-16T17:14:09.294Z,21.30
2019-01-16T17:16:45.293Z,21.30
2019-01-16T17:19:27.177Z,21.30
2019-01-16T17:22:03.734Z,21.30
2019-01-16T17:24:53.608Z,21.30
2019-01-16T17:27:27.505Z,21.30
2019-01-16T17:30:17.242Z,21.30
2019-01-16T17:32:59.760Z,21.30
2019-01-16T17:35:36.610Z,21.30
2019-01-16T17:38:10.004Z,21.30
2019-01-16T17:41:01.216Z,21.30
2019-01-16T17:43:52.417Z,21.20
2019-01-16T17:46:26.298Z,21.20
2019-01-16T17:49:02.528Z,21.20
2019-01-16T17:51:36.876Z,21.10
2019-01-16T17:54:23.713Z,21.10
2019-01-16T17:57:13.099Z,21.10
2019-01-16T17:59:52.570Z,21.10
2019-01-16T18:02:31.764Z,21.10
2019-01-16T18:05:08.004Z,21.10
2019-01-16T18:07:44.397Z,21.00
2019-01-16T18:10:29.828Z,21.10
2019-01-16T18:13:03.308Z,21.00
2019-01-16T18:15:36.699Z,21.00
2019-01-16T18:18:26.452Z,21.00
2019-01-16T18:21:08.374Z,21.00
2019-01-16T18:23:41.849Z,21.00
2019-01-16T18:26:31.562Z,21.00
2019-01-16T18:29:11.274Z,20.90
2019-01-16T18:32:00.721Z,20.90
2019-01-16T18:34:40.430Z,20.90
2019-01-16T18:37:19.717Z,20.90
2019-01-16T18:39:53.704Z,20.90
2019-01-16T18:42:39.643Z,20.80
2019-01-16T18:45:18.803Z,20.90
2019-01-16T18:48:04.466Z,20.80
2019-01-16T18:50:38.026Z,20.80
2019-01-16T18:53:27.083Z,20.90
2019-01-16T18:56:06.570Z,20.80
2019-01-16T18:58:45.852Z,20.80
2019-01-16T19:01:19.298Z,20.80
2019-01-16T19:04:07.500Z,20.80
2019-01-16T19:06:43.427Z,20.80
2019-01-16T19:09:22.716Z,20.80
2019-01-16T19:11:56.187Z,20.80
2019-01-16T19:14:41.510Z,20.70
2019-01-16T19:17:14.897Z,20.70
2019-01-16T19:20:03.447Z,20.70
2019-01-16T19:22:45.955Z,20.70
2019-01-16T19:25:19.323Z,20.70
2019-01-16T19:27:52.718Z,20.70
2019-01-16T19:30:38.518Z,20.70
2019-01-16T19:33:27.252Z,20.70
2019-01-16T19:36:06.510Z,20.60
2019-01-16T19:38:55.844Z,20.70
2019-01-16T19:41:46.941Z,20.70
2019-01-16T19:44:22.948Z,20.70
2019-01-16T19:47:12.066Z,20.60
2019-01-16T19:49:48.187Z,20.60
2019-01-16T19:52:24.328Z,20.60
2019-01-16T19:55:14.082Z,20.60
2019-01-16T19:57:53.050Z,20.60
2019-01-16T20:00:32.665Z,20.60
2019-01-16T20:03:06.163Z,20.70
2019-01-16T20:05:41.099Z,20.70
2019-01-16T20:08:14.642Z,20.70
2019-01-16T20:10:48.166Z,20.70
2019-01-16T20:13:21.710Z,20.70
2019-01-16T20:15:55.070Z,20.70
2019-01-16T20:18:28.433Z,20.70
2019-01-16T20:21:04.805Z,20.70
2019-01-16T20:23:44.579Z,20.60
2019-01-16T20:26:20.901Z,20.60
2019-01-16T20:29:10.171Z,20.60
2019-01-16T20:31:44.713Z,20.60
2019-01-16T20:34:34.104Z,20.60
2019-01-16T20:37:07.574Z,20.60
2019-01-16T20:39:40.967Z,20.60
2019-01-16T20:42:17.325Z,20.60
2019-01-16T20:44:50.886Z,20.60
2019-01-16T20:47:37.142Z,20.60
2019-01-16T20:50:14.340Z,20.60
2019-01-16T20:52:50.761Z,20.50
2019-01-16T20:55:24.643Z,20.50
2019-01-16T20:58:16.499Z,20.50
2019-01-16T21:00:50.096Z,20.50
2019-01-16T21:03:29.731Z,20.50
2019-01-16T21:06:03.649Z,20.50
2019-01-16T21:08:55.023Z,20.50
2019-01-16T21:11:44.327Z,20.50
2019-01-16T21:14:20.648Z,20.40
2019-01-16T21:17:10.466Z,20.40
2019-01-16T21:19:52.888Z,20.40
2019-01-16T21:22:42.998Z,20.40
2019-01-16T21:25:32.233Z,20.40
2019-01-16T21:28:05.860Z,20.40
2019-01-16T21:30:51.770Z,20.40
2019-01-16T21:33:26.136Z,20.40
2019-01-16T21:36:00.462Z,20.40
2019-01-16T21:38:39.735Z,20.40
2019-01-16T21:41:13.289Z,20.40
2019-01-16T21:43:58.338Z,20.30
2019-01-16T21:46:37.644Z,20.30
2019-01-16T21:49:22.861Z,20.30
2019-01-16T21:52:12.800Z,20.30
2019-01-16T21:54:46.315Z,20.30
2019-01-16T21:57:28.690Z,20.30
2019-01-16T22:00:20.336Z,20.30
2019-01-16T22:02:53.958Z,20.20
2019-01-16T22:05:30.525Z,20.20
2019-01-16T22:08:07.090Z,20.20
2019-01-16T22:10:58.642Z,20.20
2019-01-16T22:13:32.183Z,20.20
2019-01-16T22:16:05.732Z,20.20
2019-01-16T22:18:47.890Z,20.20
2019-01-16T22:21:24.803Z,20.20
2019-01-16T22:23:58.710Z,20.20
2019-01-16T22:26:34.849Z,20.20
2019-01-16T22:29:17.699Z,20.10
2019-01-16T22:31:57.801Z,20.10
2019-01-16T22:34:34.618Z,20.10
2019-01-16T22:37:17.340Z,20.10
2019-01-16T22:40:06.581Z,20.10
2019-01-16T22:42:40.117Z,20.10
2019-01-16T22:45:31.785Z,20.10
2019-01-16T22:48:05.636Z,20.10
2019-01-16T22:50:54.832Z,20.00
2019-01-16T22:53:44.868Z,20.10
2019-01-16T22:56:24.620Z,20.00
2019-01-16T22:59:13.353Z,20.00
2019-01-16T23:01:46.870Z,20.00
2019-01-16T23:04:23.618Z,20.00
2019-01-16T23:06:59.687Z,20.00
2019-01-16T23:09:45.369Z,20.00
2019-01-16T23:12:34.914Z,20.00
2019-01-16T23:15:15.576Z,20.00
2019-01-16T23:17:57.645Z,20.00
2019-01-16T23:20:49.391Z,20.00
2019-01-16T23:23:38.894Z,20.00
2019-01-16T23:26:12.790Z,20.00
2019-01-16T23:28:48.972Z,20.00
2019-01-16T23:31:38.029Z,20.00
2019-01-16T23:34:30.012Z,19.90
2019-01-16T23:37:07.714Z,19.90
2019-01-16T23:39:56.849Z,19.90
2019-01-16T23:42:30.490Z,19.90
2019-01-16T23:45:12.855Z,19.90
2019-01-16T23:47:46.430Z,19.90
2019-01-16T23:50:35.941Z,19.90
2019-01-16T23:53:16.189Z,19.90
2019-01-16T23:56:01.741Z,19.90
2019-01-16T23:58:35.297Z,19.90
